createdAt,value
2019-02-17T00:00:11.418Z,62.32
2019-02-17T00:02:19.410Z,61.57
2019-02-17T00:04:27.168Z,61.81
2019-02-17T00:06:34.871Z,61.98
2019-02-17T00:08:42.600Z,61.44
2019-02-17T00:10:50.209Z,61.81
2019-02-17T00:12:57.937Z,61.32
2019-02-17T00:15:05.935Z,61.56
2019-02-17T00:17:13.678Z,61.59
2019-02-17T00:19:21.323Z,61.71
2019-02-17T00:21:29.195Z,61.85
2019-02-17T00:23:37.020Z,62.02
2019-02-17T00:25:44.691Z,61.92
2019-02-17T00:27:52.529Z,61.79
2019-02-17T00:30:00.322Z,61.63
2019-02-17T00:32:07.985Z,61.13
2019-02-17T00:34:15.761Z,61.54
2019-02-17T00:36:23.564Z,61.41
2019-02-17T00:38:31.478Z,61.42
2019-02-17T00:40:39.272Z,61.92
2019-02-17T00:42:47.343Z,61.98
2019-02-17T00:44:55.195Z,61.89
2019-02-17T00:47:02.887Z,62.46
2019-02-17T00:49:10.652Z,62.59
2019-02-17T00:51:18.303Z,61.91
2019-02-17T00:53:26.042Z,62.10
2019-02-17T00:55:33.818Z,61.92
2019-02-17T00:57:41.470Z,61.75
2019-02-17T00:59:49.148Z,61.81
2019-02-17T01:01:56.862Z,62.13
2019-02-17T01:04:04.687Z,61.84
2019-02-17T01:06:12.486Z,61.96
2019-02-17T01:08:20.245Z,62.42
2019-02-17T01:10:27.918Z,62.16
2019-02-17T01:12:35.692Z,61.88
2019-02-17T01:14:43.651Z,62.02
2019-02-17T01:16:51.526Z,62.31
2019-02-17T01:18:59.216Z,62.48
2019-02-17T01:21:06.831Z,62.34
2019-02-17T01:23:14.493Z,62.87
2019-02-17T01:25:22.300Z,63.09
2019-02-17T01:27:30.065Z,63.22
2019-02-17T01:29:37.693Z,62.94
2019-02-17T01:31:45.394Z,62.78
2019-02-17T01:33:53.105Z,62.90
2019-02-17T01:36:00.922Z,63.36
2019-02-17T01:38:08.516Z,63.52
2019-02-17T01:40:16.026Z,63.48
2019-02-17T01:42:23.865Z,63.56
2019-02-17T01:44:31.628Z,63.74
2019-02-17T01:46:39.350Z,63.90
2019-02-17T01:48:47.022Z,63.84
2019-02-17T01:50:54.854Z,64.58
2019-02-17T01:53:02.301Z,64.52
2019-02-17T01:55:10.154Z,64.25
2019-02-17T01:57:17.698Z,64.59
2019-02-17T01:59:30.548Z,64.73
2019-02-17T02:01:34.974Z,64.74
2019-02-17T02:03:42.624Z,64.25
2019-02-17T02:05:50.222Z,64.65
2019-02-17T02:07:57.840Z,64.79
2019-02-17T02:10:06.148Z,64.60
2019-02-17T02:12:13.924Z,64.81
2019-02-17T02:14:21.554Z,64.47
2019-02-17T02:16:29.333Z,64.92
2019-02-17T02:18:36.989Z,64.62
2019-02-17T02:20:44.720Z,65.02
2019-02-17T02:22:52.384Z,64.90
2019-02-17T02:25:00.221Z,65.01
2019-02-17T02:27:07.906Z,65.33
2019-02-17T02:29:15.567Z,64.99
2019-02-17T02:31:23.426Z,65.09
2019-02-17T02:33:31.167Z,65.10
2019-02-17T02:35:39.187Z,65.01
2019-02-17T02:37:46.927Z,65.07
2019-02-17T02:39:54.628Z,64.97
2019-02-17T02:42:02.499Z,65.37
2019-02-17T02:44:10.246Z,65.34
2019-02-17T02:46:18.050Z,65.71
2019-02-17T02:48:25.984Z,65.75
2019-02-17T02:50:33.724Z,65.60
2019-02-17T02:52:41.437Z,65.50
2019-02-17T02:54:49.167Z,65.67
2019-02-17T02:56:56.887Z,65.35
2019-02-17T02:59:04.684Z,65.86
2019-02-17T03:01:12.752Z,65.80
2019-02-17T03:03:20.533Z,65.83
2019-02-17T03:05:28.051Z,66.05
2019-02-17T03:07:35.623Z,65.86
2019-02-17T03:09:43.210Z,65.77
2019-02-17T03:11:50.931Z,66.16
2019-02-17T03:13:58.660Z,65.81
2019-02-17T03:16:06.519Z,65.74
2019-02-17T03:18:14.137Z,65.92
2019-02-17T03:20:21.496Z,65.75
2019-02-17T03:22:29.222Z,65.80
2019-02-17T03:24:36.846Z,65.87
2019-02-17T03:26:44.686Z,65.90
2019-02-17T03:28:52.322Z,65.81
2019-02-17T03:31:00.085Z,66.08
2019-02-17T03:33:07.882Z,65.85
2019-02-17T03:35:15.708Z,65.89
2019-02-17T03:37:23.081Z,65.96
2019-02-17T03:39:30.623Z,65.83
2019-02-17T03:41:38.472Z,65.83
2019-02-17T03:43:46.388Z,66.24
2019-02-17T03:45:54.079Z,66.07
2019-02-17T03:48:01.855Z,66.11
2019-02-17T03:50:09.531Z,65.95
2019-02-17T03:52:17.317Z,66.06
2019-02-17T03:54:24.967Z,66.17
2019-02-17T03:56:32.649Z,66.02
2019-02-17T03:58:40.329Z,66.13
2019-02-17T04:00:47.960Z,66.30
2019-02-17T04:02:55.617Z,66.33
2019-02-17T04:05:03.507Z,66.79
2019-02-17T04:07:11.027Z,66.44
2019-02-17T04:09:18.715Z,66.38
2019-02-17T04:11:26.557Z,66.18
2019-02-17T04:13:34.485Z,66.42
2019-02-17T04:15:42.117Z,66.29
2019-02-17T04:17:49.782Z,66.34
2019-02-17T04:19:57.505Z,66.21
2019-02-17T04:22:05.160Z,66.32
2019-02-17T04:24:12.854Z,66.41
2019-02-17T04:26:20.393Z,66.25
2019-02-17T04:28:28.183Z,66.30
2019-02-17T04:30:35.783Z,65.98
2019-02-17T04:32:43.475Z,66.24
2019-02-17T04:34:51.219Z,66.08
2019-02-17T04:36:58.832Z,66.03
2019-02-17T04:39:07.687Z,66.31
2019-02-17T04:41:15.484Z,66.79
2019-02-17T04:43:23.305Z,66.50
2019-02-17T04:45:30.884Z,66.39
2019-02-17T04:47:38.552Z,66.66
2019-02-17T04:49:46.364Z,66.50
2019-02-17T04:51:54.099Z,66.78
2019-02-17T04:54:01.732Z,66.82
2019-02-17T04:56:09.429Z,67.02
2019-02-17T04:58:17.005Z,67.87
2019-02-17T05:00:24.643Z,67.98
2019-02-17T05:02:32.249Z,67.29
2019-02-17T05:04:39.983Z,67.28
2019-02-17T05:06:47.867Z,67.62
2019-02-17T05:08:55.530Z,67.37
2019-02-17T05:11:03.071Z,67.44
2019-02-17T05:13:10.751Z,67.33
2019-02-17T05:15:18.494Z,68.27
2019-02-17T05:17:26.204Z,67.90
2019-02-17T05:19:33.872Z,67.40
2019-02-17T05:21:41.453Z,67.35
2019-02-17T05:23:49.135Z,67.54
2019-02-17T05:25:56.587Z,67.58
2019-02-17T05:28:04.212Z,67.59
2019-02-17T05:30:12.119Z,68.23
2019-02-17T05:32:19.617Z,67.95
2019-02-17T05:34:27.356Z,68.35
2019-02-17T05:36:35.110Z,68.01
2019-02-17T05:38:42.786Z,67.92
2019-02-17T05:40:50.434Z,67.82
2019-02-17T05:42:58.259Z,68.06
2019-02-17T05:45:07.433Z,68.60
2019-02-17T05:47:14.944Z,68.35
2019-02-17T05:49:22.610Z,68.70
2019-02-17T05:51:30.361Z,68.04
2019-02-17T05:53:37.917Z,68.71
2019-02-17T05:55:45.618Z,67.99
2019-02-17T05:57:53.293Z,68.91
2019-02-17T06:00:01.001Z,68.15
2019-02-17T06:02:08.695Z,68.20
2019-02-17T06:04:16.361Z,68.42
2019-02-17T06:06:24.103Z,68.48
2019-02-17T06:08:32.275Z,68.21
2019-02-17T06:10:40.066Z,68.16
2019-02-17T06:12:47.850Z,68.36
2019-02-17T06:14:55.744Z,68.19
2019-02-17T06:17:03.571Z,68.46
2019-02-17T06:19:11.286Z,68.64
2019-02-17T06:21:18.960Z,68.46
2019-02-17T06:23:26.686Z,68.48
2019-02-17T06:25:34.539Z,68.47
2019-02-17T06:27:42.308Z,68.65
2019-02-17T06:29:49.968Z,68.71
2019-02-17T06:31:57.637Z,68.29
2019-02-17T06:34:05.329Z,68.02
2019-02-17T06:36:13.139Z,68.26
2019-02-17T06:38:20.989Z,68.17
2019-02-17T06:40:28.711Z,67.90
2019-02-17T06:42:36.447Z,68.13
2019-02-17T06:44:44.156Z,68.16
2019-02-17T06:46:56.228Z,67.94
2019-02-17T06:49:04.025Z,68.12
2019-02-17T06:51:11.893Z,68.12
2019-02-17T06:53:19.590Z,68.16
2019-02-17T06:55:42.061Z,67.79
2019-02-17T06:57:49.767Z,67.27
2019-02-17T07:00:12.236Z,67.88
2019-02-17T07:02:19.971Z,67.71
2019-02-17T07:04:49.757Z,67.18
2019-02-17T07:07:01.353Z,67.54
2019-02-17T07:09:09.634Z,67.06
2019-02-17T07:11:17.626Z,66.80
2019-02-17T07:13:25.270Z,67.32
2019-02-17T07:15:32.976Z,67.09
2019-02-17T07:17:40.774Z,66.49
2019-02-17T07:19:48.484Z,67.02
2019-02-17T07:21:56.402Z,66.70
2019-02-17T07:24:04.256Z,66.94
2019-02-17T07:26:12.295Z,66.56
2019-02-17T07:28:19.901Z,66.58
2019-02-17T07:30:27.635Z,67.15
2019-02-17T07:32:35.510Z,66.71
2019-02-17T07:34:43.371Z,66.67
2019-02-17T07:36:51.080Z,66.13
2019-02-17T07:38:58.743Z,66.35
2019-02-17T07:41:06.572Z,66.93
2019-02-17T07:43:14.404Z,66.42
2019-02-17T07:45:22.339Z,66.97
2019-02-17T07:47:30.155Z,66.83
2019-02-17T07:49:37.944Z,66.73
2019-02-17T07:51:45.669Z,66.54
2019-02-17T07:53:53.499Z,66.25
2019-02-17T07:56:01.172Z,67.34
2019-02-17T07:58:08.917Z,66.65
2019-02-17T08:00:16.814Z,66.59
2019-02-17T08:02:24.441Z,66.65
2019-02-17T08:04:32.138Z,66.53
2019-02-17T08:06:39.915Z,66.29
2019-02-17T08:08:47.739Z,66.33
2019-02-17T08:11:03.669Z,66.64
2019-02-17T08:13:06.120Z,66.69
2019-02-17T08:15:13.880Z,66.94
2019-02-17T08:17:21.721Z,66.64
2019-02-17T08:19:29.733Z,66.03
2019-02-17T08:21:37.651Z,66.28
2019-02-17T08:23:45.444Z,66.71
2019-02-17T08:25:53.233Z,66.53
2019-02-17T08:28:01.173Z,65.76
2019-02-17T08:30:10.410Z,66.26
2019-02-17T08:32:18.252Z,65.62
2019-02-17T08:34:25.963Z,66.40
2019-02-17T08:36:34.194Z,66.66
2019-02-17T08:38:42.284Z,66.88
2019-02-17T08:40:50.028Z,66.72
2019-02-17T08:42:57.998Z,67.30
2019-02-17T08:45:06.137Z,67.38
2019-02-17T08:47:13.933Z,66.72
2019-02-17T08:49:21.694Z,67.05
2019-02-17T08:51:29.349Z,67.40
2019-02-17T08:53:37.090Z,67.06
2019-02-17T08:55:44.918Z,67.25
2019-02-17T08:57:52.749Z,67.42
2019-02-17T09:00:00.557Z,67.24
2019-02-17T09:02:08.413Z,67.57
2019-02-17T09:04:16.404Z,67.64
2019-02-17T09:06:24.243Z,67.17
2019-02-17T09:08:32.010Z,67.14
2019-02-17T09:10:40.102Z,67.07
2019-02-17T09:12:47.891Z,66.31
2019-02-17T09:14:55.747Z,67.12
2019-02-17T09:17:03.665Z,67.52
2019-02-17T09:19:11.785Z,67.02
2019-02-17T09:21:19.671Z,66.88
2019-02-17T09:23:27.429Z,66.72
2019-02-17T09:25:35.228Z,67.50
2019-02-17T09:27:43.299Z,68.08
2019-02-17T09:29:51.103Z,67.52
2019-02-17T09:31:59.524Z,67.69
2019-02-17T09:34:07.533Z,67.71
2019-02-17T09:36:15.201Z,67.10
2019-02-17T09:38:23.123Z,66.97
2019-02-17T09:40:30.838Z,66.94
2019-02-17T09:42:38.949Z,66.93
2019-02-17T09:44:46.725Z,67.47
2019-02-17T09:46:54.515Z,67.25
2019-02-17T09:49:02.660Z,68.16
2019-02-17T09:51:10.455Z,67.68
2019-02-17T09:53:19.020Z,67.64
2019-02-17T09:55:27.030Z,67.62
2019-02-17T09:57:35.220Z,68.25
2019-02-17T09:59:43.195Z,68.43
2019-02-17T10:01:51.560Z,67.71
2019-02-17T10:03:59.272Z,67.96
2019-02-17T10:06:07.097Z,68.41
2019-02-17T10:08:15.067Z,68.51
2019-02-17T10:10:24.033Z,68.25
2019-02-17T10:12:32.337Z,68.30
2019-02-17T10:14:40.720Z,68.14
2019-02-17T10:16:49.691Z,68.18
2019-02-17T10:18:57.604Z,68.10
2019-02-17T10:21:05.334Z,68.35
2019-02-17T10:23:13.697Z,68.21
2019-02-17T10:25:22.300Z,68.87
2019-02-17T10:27:30.229Z,69.18
2019-02-17T10:29:37.948Z,68.99
2019-02-17T10:31:45.653Z,69.28
2019-02-17T10:33:53.630Z,68.36
2019-02-17T10:36:01.744Z,68.51
2019-02-17T10:38:09.590Z,68.68
2019-02-17T10:40:17.639Z,68.83
2019-02-17T10:42:25.631Z,69.10
2019-02-17T10:44:33.517Z,68.84
2019-02-17T10:46:41.477Z,68.87
2019-02-17T10:48:49.049Z,68.68
2019-02-17T10:50:56.975Z,68.75
2019-02-17T10:53:05.426Z,68.59
2019-02-17T10:55:14.158Z,69.25
2019-02-17T10:57:21.861Z,69.37
2019-02-17T10:59:29.438Z,69.41
2019-02-17T11:01:37.679Z,69.61
2019-02-17T11:04:11.994Z,69.56
2019-02-17T11:06:19.687Z,69.64
2019-02-17T11:08:27.378Z,70.45
2019-02-17T11:10:35.213Z,69.55
2019-02-17T11:12:43.251Z,69.94
2019-02-17T11:14:51.097Z,70.11
2019-02-17T11:16:59.111Z,69.71
2019-02-17T11:19:07.120Z,70.02
2019-02-17T11:21:15.126Z,69.37
2019-02-17T11:23:22.950Z,69.67
2019-02-17T11:25:31.089Z,69.54
2019-02-17T11:27:39.145Z,69.49
2019-02-17T11:29:46.780Z,69.58
2019-02-17T11:31:54.860Z,69.72
2019-02-17T11:34:02.867Z,69.50
2019-02-17T11:36:10.944Z,69.39
2019-02-17T11:38:18.856Z,69.50
2019-02-17T11:40:26.900Z,69.57
2019-02-17T11:42:34.839Z,70.04
2019-02-17T11:44:42.609Z,69.80
2019-02-17T11:46:50.636Z,70.29
2019-02-17T11:48:58.901Z,69.99
2019-02-17T11:51:07.611Z,70.12
2019-02-17T11:53:15.822Z,69.75
2019-02-17T11:55:23.927Z,69.27
2019-02-17T11:57:31.862Z,69.25
2019-02-17T11:59:40.220Z,69.26
2019-02-17T12:01:48.369Z,69.10
2019-02-17T12:03:57.238Z,69.75
2019-02-17T12:06:05.193Z,69.65
2019-02-17T12:08:13.205Z,69.63
2019-02-17T12:10:21.193Z,69.24
2019-02-17T12:12:29.109Z,69.07
2019-02-17T12:14:37.251Z,68.54
2019-02-17T12:16:45.179Z,68.94
2019-02-17T12:18:53.040Z,68.56
2019-02-17T12:21:19.700Z,68.50
2019-02-17T12:23:43.145Z,69.01
2019-02-17T12:26:09.852Z,69.12
2019-02-17T12:28:48.617Z,68.58
2019-02-17T12:30:56.451Z,68.99
2019-02-17T12:33:04.187Z,69.16
2019-02-17T12:35:12.145Z,69.36
2019-02-17T12:37:19.920Z,69.37
2019-02-17T12:39:27.628Z,69.05
2019-02-17T12:41:35.707Z,69.06
2019-02-17T12:43:43.969Z,68.76
2019-02-17T12:45:51.939Z,69.05
2019-02-17T12:47:59.706Z,69.12
2019-02-17T12:50:08.420Z,68.88
2019-02-17T12:52:16.289Z,68.72
2019-02-17T12:54:29.111Z,69.14
2019-02-17T12:56:33.574Z,68.58
2019-02-17T12:58:41.370Z,68.90
2019-02-17T13:00:49.121Z,68.86
2019-02-17T13:02:56.906Z,69.10
2019-02-17T13:05:05.058Z,69.26
2019-02-17T13:07:12.708Z,69.09
2019-02-17T13:09:20.659Z,68.94
2019-02-17T13:11:28.474Z,68.94
2019-02-17T13:13:36.094Z,68.86
2019-02-17T13:15:43.813Z,69.52
2019-02-17T13:17:53.061Z,69.33
2019-02-17T13:20:00.741Z,68.96
2019-02-17T13:22:08.426Z,69.67
2019-02-17T13:24:16.289Z,69.68
2019-02-17T13:26:24.254Z,69.81
2019-02-17T13:28:31.937Z,68.73
2019-02-17T13:30:39.592Z,68.92
2019-02-17T13:32:47.770Z,68.79
2019-02-17T13:34:55.502Z,69.12
2019-02-17T13:37:03.286Z,69.43
2019-02-17T13:39:11.227Z,69.58
2019-02-17T13:41:18.912Z,69.64
2019-02-17T13:43:26.725Z,69.45
2019-02-17T13:45:34.560Z,69.98
2019-02-17T13:47:42.488Z,69.98
2019-02-17T13:49:50.412Z,70.10
2019-02-17T13:51:58.207Z,69.72
2019-02-17T13:54:06.171Z,69.61
2019-02-17T13:56:14.469Z,69.44
2019-02-17T13:58:22.130Z,69.52
2019-02-17T14:00:29.878Z,69.61
2019-02-17T14:02:37.691Z,69.61
2019-02-17T14:04:45.618Z,69.96
2019-02-17T14:06:53.456Z,69.87
2019-02-17T14:09:01.395Z,70.00
2019-02-17T14:11:09.439Z,70.18
2019-02-17T14:13:17.274Z,70.64
2019-02-17T14:15:25.431Z,70.13
2019-02-17T14:17:33.387Z,70.09
2019-02-17T14:19:41.536Z,70.33
2019-02-17T14:21:49.417Z,70.11
2019-02-17T14:23:57.412Z,70.15
2019-02-17T14:26:05.320Z,70.25
2019-02-17T14:28:12.999Z,70.40
2019-02-17T14:30:21.281Z,70.46
2019-02-17T14:32:29.156Z,70.50
2019-02-17T14:34:37.672Z,70.67
2019-02-17T14:36:45.799Z,70.70
2019-02-17T14:38:54.020Z,70.89
2019-02-17T14:41:02.156Z,70.71
2019-02-17T14:43:10.342Z,70.83
2019-02-17T14:45:18.541Z,70.91
2019-02-17T14:47:26.889Z,70.87
2019-02-17T14:49:35.712Z,71.10
2019-02-17T14:51:43.687Z,71.11
2019-02-17T14:53:51.448Z,71.14
2019-02-17T14:55:59.543Z,71.37
2019-02-17T14:58:07.391Z,71.29
2019-02-17T15:00:15.731Z,71.50
2019-02-17T15:02:23.378Z,71.45
2019-02-17T15:04:31.825Z,71.46
2019-02-17T15:06:39.869Z,71.34
2019-02-17T15:08:48.051Z,71.77
2019-02-17T15:10:56.378Z,71.64
2019-02-17T15:13:04.465Z,71.63
2019-02-17T15:15:12.614Z,71.79
2019-02-17T15:17:20.349Z,71.68
2019-02-17T15:19:29.074Z,71.62
2019-02-17T15:21:37.402Z,71.69
2019-02-17T15:23:45.723Z,71.68
2019-02-17T15:25:54.215Z,71.48
2019-02-17T15:28:04.983Z,71.25
2019-02-17T15:30:14.563Z,71.38
2019-02-17T15:32:22.610Z,71.42
2019-02-17T15:34:30.696Z,71.29
2019-02-17T15:36:38.767Z,71.36
2019-02-17T15:38:46.969Z,71.68
2019-02-17T15:40:54.940Z,71.15
2019-02-17T15:43:02.968Z,71.12
2019-02-17T15:45:12.048Z,71.23
2019-02-17T15:47:19.902Z,71.17
2019-02-17T15:49:28.165Z,71.39
2019-02-17T15:51:36.238Z,71.56
2019-02-17T15:53:44.773Z,71.79
2019-02-17T15:55:52.863Z,71.23
2019-02-17T15:58:01.187Z,71.25
2019-02-17T16:00:12.679Z,71.40
2019-02-17T16:02:21.196Z,71.48
2019-02-17T16:04:29.711Z,71.34
2019-02-17T16:06:37.630Z,71.08
2019-02-17T16:08:45.774Z,70.96
2019-02-17T16:10:53.847Z,71.13
2019-02-17T16:13:01.886Z,71.57
2019-02-17T16:15:12.748Z,71.83
2019-02-17T16:17:20.881Z,72.00
2019-02-17T16:19:28.616Z,71.69
2019-02-17T16:21:36.627Z,71.86
2019-02-17T16:23:44.561Z,71.57
2019-02-17T16:25:52.440Z,71.83
2019-02-17T16:28:00.479Z,71.76
2019-02-17T16:30:12.165Z,72.03
2019-02-17T16:32:21.743Z,72.21
2019-02-17T16:34:38.037Z,72.27
2019-02-17T16:36:39.215Z,72.28
2019-02-17T16:38:47.183Z,72.11
2019-02-17T16:40:55.057Z,72.37
2019-02-17T16:43:02.917Z,72.76
2019-02-17T16:45:12.707Z,72.83
2019-02-17T16:47:21.855Z,72.82
2019-02-17T16:49:29.726Z,73.08
2019-02-17T16:51:37.983Z,73.16
2019-02-17T16:53:45.769Z,73.01
2019-02-17T16:55:53.715Z,73.29
2019-02-17T16:58:01.678Z,73.02
2019-02-17T17:00:12.334Z,72.75
2019-02-17T17:02:20.295Z,73.13
2019-02-17T17:04:28.489Z,73.50
2019-02-17T17:06:36.605Z,73.27
2019-02-17T17:08:44.679Z,73.17
2019-02-17T17:10:53.106Z,73.46
2019-02-17T17:13:01.952Z,73.30
2019-02-17T17:15:10.360Z,73.69
2019-02-17T17:17:18.327Z,73.30
2019-02-17T17:19:26.408Z,73.78
2019-02-17T17:21:34.490Z,73.84
2019-02-17T17:23:42.568Z,73.47
2019-02-17T17:25:50.602Z,73.56
2019-02-17T17:27:59.592Z,73.64
2019-02-17T17:30:08.264Z,73.78
2019-02-17T17:32:16.924Z,74.00
2019-02-17T17:34:24.970Z,73.85
2019-02-17T17:36:33.576Z,73.73
2019-02-17T17:38:41.742Z,74.33
2019-02-17T17:40:50.088Z,74.21
2019-02-17T17:42:58.100Z,74.21
2019-02-17T17:45:06.996Z,74.19
2019-02-17T17:47:16.343Z,73.69
2019-02-17T17:49:24.998Z,73.48
2019-02-17T17:51:34.419Z,73.75
2019-02-17T17:53:43.290Z,73.61
2019-02-17T17:55:51.433Z,73.56
2019-02-17T17:57:59.264Z,73.51
2019-02-17T18:00:08.712Z,72.90
2019-02-17T18:02:16.317Z,73.22
2019-02-17T18:04:24.430Z,73.54
2019-02-17T18:06:33.010Z,73.30
2019-02-17T18:08:41.338Z,73.49
2019-02-17T18:10:49.342Z,72.94
2019-02-17T18:12:57.738Z,73.39
2019-02-17T18:15:06.364Z,73.53
2019-02-17T18:17:14.368Z,73.45
2019-02-17T18:19:22.373Z,73.63
2019-02-17T18:21:30.452Z,73.61
2019-02-17T18:23:38.447Z,73.69
2019-02-17T18:25:46.468Z,73.54
2019-02-17T18:27:54.557Z,73.93
2019-02-17T18:30:02.957Z,73.59
2019-02-17T18:32:11.278Z,73.65
2019-02-17T18:34:20.191Z,74.08
2019-02-17T18:36:28.165Z,73.42
2019-02-17T18:38:36.367Z,73.61
2019-02-17T18:40:47.204Z,74.11
2019-02-17T18:42:53.927Z,74.03
2019-02-17T18:45:02.424Z,73.87
2019-02-17T18:47:10.938Z,74.06
2019-02-17T18:49:18.835Z,74.23
2019-02-17T18:51:26.792Z,74.23
2019-02-17T18:53:35.087Z,74.11
2019-02-17T18:55:43.691Z,74.81
2019-02-17T18:57:51.480Z,74.99
2019-02-17T18:59:59.239Z,74.80
2019-02-17T19:02:07.213Z,74.57
2019-02-17T19:04:15.205Z,74.44
2019-02-17T19:06:23.410Z,74.52
2019-02-17T19:08:33.699Z,74.35
2019-02-17T19:10:41.850Z,74.33
2019-02-17T19:12:50.052Z,74.27
2019-02-17T19:14:57.804Z,74.07
2019-02-17T19:17:06.730Z,74.35
2019-02-17T19:19:15.060Z,74.17
2019-02-17T19:21:23.771Z,74.37
2019-02-17T19:23:32.056Z,74.31
2019-02-17T19:25:40.050Z,74.57
2019-02-17T19:27:48.661Z,74.61
2019-02-17T19:29:56.642Z,74.53
2019-02-17T19:32:04.689Z,74.51
2019-02-17T19:34:12.850Z,74.21
2019-02-17T19:36:20.940Z,74.30
2019-02-17T19:38:29.195Z,74.71
2019-02-17T19:40:37.148Z,74.93
2019-02-17T19:42:45.104Z,74.99
2019-02-17T19:44:53.164Z,74.59
2019-02-17T19:47:02.074Z,74.77
2019-02-17T19:49:10.111Z,74.24
2019-02-17T19:51:18.292Z,74.14
2019-02-17T19:53:26.324Z,74.53
2019-02-17T19:55:34.807Z,74.80
2019-02-17T19:57:43.356Z,74.78
2019-02-17T19:59:51.045Z,74.86
2019-02-17T20:01:58.834Z,74.68
2019-02-17T20:04:31.851Z,74.36
2019-02-17T20:06:39.570Z,74.43
2019-02-17T20:08:48.008Z,74.58
2019-02-17T20:10:56.724Z,74.27
2019-02-17T20:13:05.097Z,73.97
2019-02-17T20:15:12.788Z,74.18
2019-02-17T20:17:20.678Z,74.28
2019-02-17T20:19:28.543Z,74.28
2019-02-17T20:21:36.249Z,74.33
2019-02-17T20:23:44.104Z,74.32
2019-02-17T20:25:52.130Z,74.34
2019-02-17T20:28:00.267Z,74.50
2019-02-17T20:30:08.714Z,74.80
2019-02-17T20:32:16.662Z,74.90
2019-02-17T20:34:25.522Z,74.69
2019-02-17T20:36:33.815Z,74.50
2019-02-17T20:38:41.912Z,74.77
2019-02-17T20:40:49.823Z,74.72
2019-02-17T20:42:57.324Z,75.13
2019-02-17T20:45:05.767Z,74.88
2019-02-17T20:47:13.872Z,75.17
2019-02-17T20:49:21.813Z,75.22
2019-02-17T20:51:29.672Z,75.14
2019-02-17T20:53:37.466Z,75.19
2019-02-17T20:55:45.479Z,74.82
2019-02-17T20:57:53.273Z,74.97
2019-02-17T21:00:01.251Z,75.21
2019-02-17T21:02:09.123Z,75.36
2019-02-17T21:04:17.290Z,75.35
2019-02-17T21:06:25.652Z,75.39
2019-02-17T21:08:33.501Z,75.70
2019-02-17T21:10:41.394Z,76.04
2019-02-17T21:12:49.524Z,75.81
2019-02-17T21:14:57.156Z,75.54
2019-02-17T21:17:06.893Z,75.76
2019-02-17T21:19:14.716Z,75.99
2019-02-17T21:21:23.143Z,75.51
2019-02-17T21:23:31.155Z,75.42
2019-02-17T21:25:39.314Z,75.74
2019-02-17T21:27:47.318Z,75.69
2019-02-17T21:29:55.217Z,75.56
2019-02-17T21:32:03.063Z,75.78
2019-02-17T21:34:11.023Z,76.23
2019-02-17T21:36:23.229Z,75.87
2019-02-17T21:38:28.731Z,76.21
2019-02-17T21:40:36.649Z,75.90
2019-02-17T21:42:44.951Z,75.88
2019-02-17T21:44:52.766Z,75.72
2019-02-17T21:47:00.528Z,75.44
2019-02-17T21:49:08.621Z,75.39
2019-02-17T21:51:16.774Z,75.62
2019-02-17T21:53:24.696Z,75.69
2019-02-17T21:55:32.789Z,75.56
2019-02-17T21:57:42.226Z,75.48
2019-02-17T21:59:50.120Z,75.41
2019-02-17T22:01:58.013Z,75.31
2019-02-17T22:04:06.045Z,75.67
2019-02-17T22:06:14.011Z,75.66
2019-02-17T22:08:21.731Z,75.90
2019-02-17T22:10:29.298Z,75.71
2019-02-17T22:12:37.302Z,75.83
2019-02-17T22:14:45.115Z,76.15
2019-02-17T22:16:52.933Z,76.08
2019-02-17T22:19:01.189Z,76.53
2019-02-17T22:21:08.916Z,76.55
2019-02-17T22:23:16.559Z,76.61
2019-02-17T22:25:24.511Z,76.04
2019-02-17T22:27:32.391Z,75.94
2019-02-17T22:29:40.076Z,76.54
2019-02-17T22:31:48.405Z,76.62
2019-02-17T22:33:56.107Z,76.87
2019-02-17T22:36:03.845Z,76.75
2019-02-17T22:38:11.603Z,76.77
2019-02-17T22:40:19.370Z,76.51
2019-02-17T22:42:27.137Z,76.73
2019-02-17T22:44:34.943Z,76.51
2019-02-17T22:46:42.731Z,77.04
2019-02-17T22:48:50.497Z,77.27
2019-02-17T22:50:58.345Z,77.11
2019-02-17T22:53:05.999Z,77.15
2019-02-17T22:55:14.092Z,77.14
2019-02-17T22:57:22.080Z,77.29
2019-02-17T22:59:29.786Z,77.45
2019-02-17T23:01:37.639Z,77.54
2019-02-17T23:03:45.478Z,77.53
2019-02-17T23:05:53.279Z,77.20
2019-02-17T23:08:01.000Z,77.82
2019-02-17T23:10:09.187Z,77.81
2019-02-17T23:12:17.504Z,77.66
2019-02-17T23:14:25.227Z,77.45
2019-02-17T23:16:32.763Z,77.33
2019-02-17T23:18:40.428Z,77.56
2019-02-17T23:20:48.095Z,77.56
2019-02-17T23:22:55.757Z,77.19
2019-02-17T23:25:05.202Z,77.61
2019-02-17T23:27:13.239Z,77.72
2019-02-17T23:29:21.072Z,77.89
2019-02-17T23:31:28.872Z,77.71
2019-02-17T23:33:36.685Z,77.15
2019-02-17T23:35:44.526Z,77.00
2019-02-17T23:37:52.251Z,77.41
2019-02-17T23:40:00.090Z,78.08
2019-02-17T23:42:07.967Z,78.08
2019-02-17T23:44:15.705Z,78.33
2019-02-17T23:46:23.486Z,78.20
2019-02-17T23:48:31.209Z,77.91
2019-02-17T23:50:38.919Z,77.97
2019-02-17T23:52:46.685Z,77.68
2019-02-17T23:54:54.357Z,77.87
2019-02-17T23:57:01.836Z,77.68
2019-02-17T23:59:09.743Z,78.08
